createdAt,value
2022-10-13T00:03:09.482Z,100.00
2022-10-13T00:08:31.337Z,100.00
2022-10-13T00:13:57.317Z,100.00
2022-10-13T00:25:05.314Z,100.00
2022-10-13T00:30:27.150Z,100.00
2022-10-13T00:35:49.581Z,100.00
2022-10-13T00:41:11.713Z,100.00
2022-10-13T00:46:36.108Z,100.00
2022-10-13T00:51:57.932Z,100.00
2022-10-13T00:57:20.138Z,100.00
2022-10-13T01:02:41.980Z,100.00
2022-10-13T01:08:04.690Z,100.00
2022-10-13T01:13:38.644Z,100.00
2022-10-13T01:19:13.599Z,100.00
2022-10-13T01:25:11.346Z,100.00
2022-10-13T01:30:41.056Z,100.00
2022-10-13T01:36:17.469Z,100.00
2022-10-13T01:41:44.120Z,100.00
2022-10-13T01:47:09.175Z,100.00
2022-10-13T01:52:35.669Z,100.00
2022-10-13T01:57:57.823Z,100.00
2022-10-13T02:03:51.674Z,100.00
2022-10-13T02:09:39.647Z,100.00
2022-10-13T02:15:02.954Z,100.00
2022-10-13T02:20:24.786Z,100.00
2022-10-13T02:25:48.360Z,100.00
2022-10-13T02:31:10.378Z,100.00
2022-10-13T02:36:32.746Z,100.00
2022-10-13T02:41:54.543Z,100.00
2022-10-13T02:47:16.391Z,100.00
2022-10-13T02:52:38.539Z,100.00
2022-10-13T02:58:00.384Z,100.00
2022-10-13T03:03:22.169Z,100.00
2022-10-13T03:08:43.994Z,100.00
2022-10-13T03:14:05.829Z,100.00
2022-10-13T03:19:27.861Z,100.00
2022-10-13T03:24:49.694Z,100.00
2022-10-13T03:30:11.855Z,100.00
2022-10-13T03:35:33.651Z,100.00
2022-10-13T03:40:55.803Z,100.00
2022-10-13T03:46:18.641Z,100.00
2022-10-13T03:51:40.501Z,100.00
2022-10-13T03:57:02.501Z,100.00
2022-10-13T04:02:24.362Z,100.00
2022-10-13T04:07:46.169Z,100.00
2022-10-13T04:13:08.252Z,100.00
2022-10-13T04:18:30.165Z,100.00
2022-10-13T04:23:55.119Z,100.00
2022-10-13T04:29:16.932Z,100.00
2022-10-13T04:34:38.723Z,100.00
2022-10-13T04:40:00.527Z,100.00
2022-10-13T04:45:22.321Z,100.00
2022-10-13T04:50:44.133Z,100.00
2022-10-13T04:56:09.385Z,100.00
2022-10-13T05:01:32.102Z,100.00
2022-10-13T05:07:16.384Z,100.00
2022-10-13T05:12:35.784Z,100.00
2022-10-13T05:17:58.899Z,100.00
2022-10-13T05:23:20.683Z,100.00
2022-10-13T05:28:43.108Z,100.00
2022-10-13T05:34:04.962Z,90.81
2022-10-13T05:39:27.058Z,81.82
2022-10-13T05:44:48.931Z,69.75
2022-10-13T05:50:10.783Z,64.38
2022-10-13T05:55:32.616Z,55.43
2022-10-13T06:00:54.692Z,49.80
2022-10-13T06:12:43.579Z,47.61
2022-10-13T06:18:09.759Z,55.14
2022-10-13T06:23:31.579Z,64.53
2022-10-13T06:28:58.399Z,63.66
2022-10-13T06:34:22.413Z,60.27
2022-10-13T06:39:44.209Z,50.57
2022-10-13T06:50:27.910Z,40.41
2022-10-13T06:55:52.493Z,36.65
2022-10-13T07:01:14.779Z,36.02
2022-10-13T07:06:36.620Z,36.85
2022-10-13T07:11:58.437Z,34.20
2022-10-13T07:17:20.583Z,33.92
2022-10-13T07:22:42.648Z,32.30
2022-10-13T07:28:04.682Z,31.00
2022-10-13T07:33:27.057Z,32.32
2022-10-13T07:38:48.860Z,30.11
2022-10-13T07:44:10.758Z,30.56
2022-10-13T07:49:32.620Z,29.48
2022-10-13T07:54:55.680Z,28.63
2022-10-13T08:00:18.109Z,29.73
2022-10-13T08:05:40.047Z,27.34
2022-10-13T08:11:07.550Z,25.98
2022-10-13T08:16:31.324Z,26.26
2022-10-13T08:21:58.192Z,29.43
2022-10-13T08:27:23.503Z,28.19
2022-10-13T08:32:45.384Z,28.04
2022-10-13T08:38:07.206Z,28.28
2022-10-13T08:43:29.049Z,26.64
2022-10-13T08:48:51.252Z,28.29
2022-10-13T08:54:15.814Z,27.54
2022-10-13T08:59:37.762Z,26.70
2022-10-13T09:05:03.272Z,25.27
2022-10-13T09:10:25.163Z,25.56
2022-10-13T09:15:49.340Z,25.46
2022-10-13T09:21:18.816Z,26.87
2022-10-13T09:26:40.965Z,28.05
2022-10-13T09:32:35.125Z,26.43
2022-10-13T09:38:10.491Z,26.73
2022-10-13T09:43:43.759Z,27.96
2022-10-13T09:49:53.518Z,28.51
2022-10-13T09:55:35.962Z,30.82
2022-10-13T10:00:58.772Z,30.47
2022-10-13T10:06:22.804Z,34.28
2022-10-13T10:11:51.718Z,40.54
2022-10-13T10:17:55.095Z,42.22
2022-10-13T10:23:25.697Z,42.47
2022-10-13T10:28:56.902Z,43.86
2022-10-13T10:34:58.135Z,45.44
2022-10-13T10:40:27.229Z,45.91
2022-10-13T10:45:49.239Z,45.62
2022-10-13T10:51:11.920Z,45.00
2022-10-13T10:56:39.020Z,44.83
2022-10-13T11:02:06.712Z,45.91
2022-10-13T11:07:28.631Z,46.93
2022-10-13T11:12:53.232Z,47.27
2022-10-13T11:18:52.584Z,48.27
2022-10-13T11:24:37.538Z,48.32
2022-10-13T11:30:00.625Z,48.60
2022-10-13T11:35:27.156Z,48.52
2022-10-13T11:41:00.933Z,48.51
2022-10-13T11:46:25.704Z,47.93
2022-10-13T11:52:05.745Z,47.10
2022-10-13T11:57:28.913Z,46.91
2022-10-13T12:02:53.028Z,46.96
2022-10-13T12:08:15.700Z,46.91
2022-10-13T12:13:37.620Z,46.49
2022-10-13T12:19:30.329Z,46.63
2022-10-13T12:25:03.977Z,46.50
2022-10-13T12:30:31.740Z,47.15
2022-10-13T12:35:53.882Z,47.44
2022-10-13T12:41:19.518Z,47.29
2022-10-13T12:46:52.741Z,47.55
2022-10-13T12:52:24.149Z,47.33
2022-10-13T12:57:48.925Z,47.65
2022-10-13T13:03:25.834Z,47.84
2022-10-13T13:09:06.141Z,48.27
2022-10-13T13:14:36.601Z,48.92
2022-10-13T13:19:58.736Z,48.84
2022-10-13T13:25:20.799Z,48.89
2022-10-13T13:30:42.704Z,48.30
2022-10-13T13:36:05.844Z,48.61
2022-10-13T13:41:27.654Z,49.14
2022-10-13T13:46:49.519Z,49.28
2022-10-13T13:52:11.601Z,49.27
2022-10-13T13:57:33.523Z,49.63
2022-10-13T14:02:57.215Z,49.83
2022-10-13T14:08:19.701Z,50.70
2022-10-13T14:13:41.511Z,50.43
2022-10-13T14:19:03.417Z,50.38
2022-10-13T14:24:25.401Z,50.85
2022-10-13T14:29:47.282Z,51.22
2022-10-13T14:35:09.621Z,51.51
2022-10-13T14:40:31.538Z,51.74
2022-10-13T14:45:54.008Z,51.61
2022-10-13T14:51:16.347Z,52.53
2022-10-13T14:56:38.195Z,52.67
2022-10-13T15:02:00.028Z,53.13
2022-10-13T15:07:22.127Z,53.24
2022-10-13T15:12:44.421Z,54.12
2022-10-13T15:18:06.273Z,54.93
2022-10-13T15:23:28.356Z,55.19
2022-10-13T15:28:53.038Z,55.88
2022-10-13T15:34:15.095Z,56.70
2022-10-13T15:39:37.195Z,58.04
2022-10-13T15:45:14.267Z,58.09
2022-10-13T15:50:39.568Z,59.26
2022-10-13T15:56:01.949Z,59.84
2022-10-13T16:01:24.298Z,60.81
2022-10-13T16:06:46.244Z,61.74
2022-10-13T16:12:08.129Z,62.04
2022-10-13T16:17:29.957Z,61.92
2022-10-13T16:22:53.567Z,62.22
2022-10-13T16:28:15.494Z,62.94
2022-10-13T16:33:37.560Z,63.26
2022-10-13T16:38:59.408Z,64.78
2022-10-13T16:44:21.294Z,65.42
2022-10-13T16:49:43.092Z,65.84
2022-10-13T16:55:05.819Z,66.39
2022-10-13T17:00:27.723Z,68.65
2022-10-13T17:05:52.469Z,70.12
2022-10-13T17:11:20.227Z,71.38
2022-10-13T17:16:42.035Z,71.16
2022-10-13T17:22:03.906Z,71.45
2022-10-13T17:27:25.726Z,71.64
2022-10-13T17:32:47.574Z,71.43
2022-10-13T17:38:09.405Z,71.97
2022-10-13T17:43:32.193Z,72.67
2022-10-13T17:48:58.096Z,73.02
2022-10-13T17:54:20.451Z,72.80
2022-10-13T17:59:42.258Z,73.16
2022-10-13T18:05:04.354Z,73.79
2022-10-13T18:10:26.220Z,74.07
2022-10-13T18:15:48.175Z,74.52
2022-10-13T18:21:11.429Z,75.09
2022-10-13T18:26:33.734Z,75.92
2022-10-13T18:31:55.560Z,76.78
2022-10-13T18:37:17.528Z,77.19
2022-10-13T18:42:42.317Z,76.89
2022-10-13T18:48:06.487Z,77.23
2022-10-13T18:53:28.313Z,77.82
2022-10-13T18:58:57.022Z,78.31
2022-10-13T19:04:21.125Z,78.57
2022-10-13T19:09:42.925Z,79.10
2022-10-13T19:15:05.364Z,79.15
2022-10-13T19:20:27.219Z,79.43
2022-10-13T19:25:49.075Z,79.52
2022-10-13T19:31:13.739Z,79.37
2022-10-13T19:36:38.731Z,79.51
2022-10-13T19:42:00.611Z,80.24
2022-10-13T19:47:22.965Z,80.69
2022-10-13T19:52:45.003Z,80.65
2022-10-13T19:58:06.881Z,81.32
2022-10-13T20:03:28.741Z,81.63
2022-10-13T20:08:50.590Z,82.40
2022-10-13T20:14:13.357Z,82.87
2022-10-13T20:19:35.269Z,83.24
2022-10-13T20:24:57.143Z,84.08
2022-10-13T20:30:19.076Z,84.44
2022-10-13T20:35:41.108Z,85.14
2022-10-13T20:41:18.739Z,84.85
2022-10-13T20:46:40.557Z,85.00
2022-10-13T20:52:02.396Z,85.26
2022-10-13T20:57:24.231Z,84.86
2022-10-13T21:02:49.179Z,85.97
2022-10-13T21:08:11.117Z,85.96
2022-10-13T21:13:33.169Z,86.13
2022-10-13T21:18:57.344Z,86.03
2022-10-13T21:24:19.133Z,87.11
2022-10-13T21:29:40.971Z,87.72
2022-10-13T21:35:02.840Z,87.87
2022-10-13T21:40:24.668Z,88.44
2022-10-13T21:45:46.487Z,88.37
2022-10-13T21:51:23.433Z,87.96
2022-10-13T21:56:45.261Z,89.06
2022-10-13T22:02:07.292Z,89.29
2022-10-13T22:07:29.147Z,89.59
2022-10-13T22:12:51.097Z,90.33
2022-10-13T22:18:12.941Z,90.54
2022-10-13T22:23:34.832Z,90.69
2022-10-13T22:28:58.433Z,91.44
2022-10-13T22:34:20.510Z,91.82
2022-10-13T22:39:42.369Z,92.46
2022-10-13T22:45:04.597Z,92.35
2022-10-13T22:50:26.432Z,93.03
2022-10-13T22:55:48.322Z,94.12
2022-10-13T23:01:13.471Z,94.24
2022-10-13T23:06:35.823Z,93.71
2022-10-13T23:11:59.782Z,94.96
2022-10-13T23:17:22.282Z,95.42
2022-10-13T23:22:44.310Z,95.91
2022-10-13T23:28:06.097Z,96.07
2022-10-13T23:33:28.817Z,96.58
2022-10-13T23:39:06.777Z,96.45
2022-10-13T23:44:28.594Z,97.03
2022-10-13T23:49:50.389Z,96.91
2022-10-13T23:55:12.189Z,97.60
